sensor_id;sensor_type;location;lat;lon;timestamp;pressure;altitude;pressure_sealevel;temperature;humidity
78582;BME280;67878;46.242;5.974;2024-01-27T00:01:05;96819.44;;;20.10;46.88
78582;BME280;67878;46.242;5.974;2024-01-27T00:03:30;96817.63;;;20.11;46.86
78582;BME280;67878;46.242;5.974;2024-01-27T00:05:56;96819.44;;;20.10;46.90
78582;BME280;67878;46.242;5.974;2024-01-27T00:08:21;96816.81;;;20.10;47.02
78582;BME280;67878;46.242;5.974;2024-01-27T00:10:47;96819.44;;;20.10;47.04
78582;BME280;67878;46.242;5.974;2024-01-27T00:13:12;96818.56;;;20.10;47.04
78582;BME280;67878;46.242;5.974;2024-01-27T00:15:38;96817.75;;;20.09;47.15
78582;BME280;67878;46.242;5.974;2024-01-27T00:18:04;96819.53;;;20.09;47.21
78582;BME280;67878;46.242;5.974;2024-01-27T00:20:29;96816.94;;;20.09;46.83
78582;BME280;67878;46.242;5.974;2024-01-27T00:22:55;96813.47;;;20.08;47.03
78582;BME280;67878;46.242;5.974;2024-01-27T00:25:20;96814.41;;;20.07;47.32
78582;BME280;67878;46.242;5.974;2024-01-27T00:27:46;96816.09;;;20.08;47.19
78582;BME280;67878;46.242;5.974;2024-01-27T00:30:11;96813.59;;;20.07;47.12
78582;BME280;67878;46.242;5.974;2024-01-27T00:32:37;96811.78;;;20.07;47.22
78582;BME280;67878;46.242;5.974;2024-01-27T00:35:03;96811.13;;;20.05;47.25
78582;BME280;67878;46.242;5.974;2024-01-27T00:37:28;96811.94;;;20.06;47.22
78582;BME280;67878;46.242;5.974;2024-01-27T00:39:54;96814.56;;;20.06;47.44
78582;BME280;67878;46.242;5.974;2024-01-27T00:42:20;96818.16;;;20.05;47.44
78582;BME280;67878;46.242;5.974;2024-01-27T00:44:50;96813.75;;;20.05;47.20
78582;BME280;67878;46.242;5.974;2024-01-27T00:47:15;96814.69;;;20.04;47.37
78582;BME280;67878;46.242;5.974;2024-01-27T00:49:40;96812.06;;;20.04;47.48
78582;BME280;67878;46.242;5.974;2024-01-27T00:52:06;96811.38;;;20.02;47.44
78582;BME280;67878;46.242;5.974;2024-01-27T00:54:31;96811.38;;;20.02;47.38
78582;BME280;67878;46.242;5.974;2024-01-27T00:56:57;96812.22;;;20.03;47.57
78582;BME280;67878;46.242;5.974;2024-01-27T00:59:22;96822.69;;;20.03;47.45
78582;BME280;67878;46.242;5.974;2024-01-27T01:01:47;96814.94;;;20.01;47.64
78582;BME280;67878;46.242;5.974;2024-01-27T01:04:13;96810.53;;;20.02;47.46
78582;BME280;67878;46.242;5.974;2024-01-27T01:06:40;96811.38;;;20.02;47.76
78582;BME280;67878;46.242;5.974;2024-01-27T01:09:05;96805.53;;;19.99;47.57
78582;BME280;67878;46.242;5.974;2024-01-27T01:11:31;96814.94;;;20.01;47.57
78582;BME280;67878;46.242;5.974;2024-01-27T01:13:56;96811.63;;;19.99;47.66
78582;BME280;67878;46.242;5.974;2024-01-27T01:16:22;96800.28;;;19.99;47.76
78582;BME280;67878;46.242;5.974;2024-01-27T01:18:47;96812.47;;;20.00;47.64
78582;BME280;67878;46.242;5.974;2024-01-27T01:21:13;96798.53;;;19.99;47.69
78582;BME280;67878;46.242;5.974;2024-01-27T01:23:38;96796.84;;;19.98;47.94
78582;BME280;67878;46.242;5.974;2024-01-27T01:26:03;96791.59;;;19.98;47.53
78582;BME280;67878;46.242;5.974;2024-01-27T01:28:29;96793.41;;;19.98;47.71
78582;BME280;67878;46.242;5.974;2024-01-27T01:30:55;96793.41;;;19.98;47.85
78582;BME280;67878;46.242;5.974;2024-01-27T01:33:21;96796.84;;;19.98;47.86
78582;BME280;67878;46.242;5.974;2024-01-27T01:35:46;96797.00;;;19.97;47.59
78582;BME280;67878;46.242;5.974;2024-01-27T01:38:12;96794.38;;;19.97;47.93
78582;BME280;67878;46.242;5.974;2024-01-27T01:40:37;96794.50;;;19.95;47.77
78582;BME280;67878;46.242;5.974;2024-01-27T01:43:02;96797.09;;;19.95;47.58
78582;BME280;67878;46.242;5.974;2024-01-27T01:45:29;96803.19;;;19.96;47.79
78582;BME280;67878;46.242;5.974;2024-01-27T01:47:55;96805.81;;;19.96;47.81
78582;BME280;67878;46.242;5.974;2024-01-27T01:50:21;96799.72;;;19.95;47.84
78582;BME280;67878;46.242;5.974;2024-01-27T01:52:48;96804.16;;;19.95;47.71
78582;BME280;67878;46.242;5.974;2024-01-27T01:55:14;96806.78;;;19.95;47.73
78582;BME280;67878;46.242;5.974;2024-01-27T01:57:42;96798.06;;;19.94;47.77
78582;BME280;67878;46.242;5.974;2024-01-27T02:00:09;96805.13;;;19.93;47.63
78582;BME280;67878;46.242;5.974;2024-01-27T02:02:34;96796.41;;;19.93;47.73
78582;BME280;67878;46.242;5.974;2024-01-27T02:05:00;96797.25;;;19.93;47.74
78582;BME280;67878;46.242;5.974;2024-01-27T02:07:25;96805.22;;;19.92;47.78
78582;BME280;67878;46.242;5.974;2024-01-27T02:09:50;96809.38;;;19.95;47.60
78582;BME280;67878;46.242;5.974;2024-01-27T02:12:16;96812.97;;;19.93;47.74
78582;BME280;67878;46.242;5.974;2024-01-27T02:14:41;96806.78;;;19.95;48.06
78582;BME280;67878;46.242;5.974;2024-01-27T02:17:07;96807.47;;;19.97;47.80
78582;BME280;67878;46.242;5.974;2024-01-27T02:19:32;96803.06;;;19.97;47.69
78582;BME280;67878;46.242;5.974;2024-01-27T02:21:58;96803.88;;;19.98;47.77
78582;BME280;67878;46.242;5.974;2024-01-27T02:24:23;96813.28;;;20.00;48.41
78582;BME280;67878;46.242;5.974;2024-01-27T02:26:48;96803.06;;;19.97;47.93
78582;BME280;67878;46.242;5.974;2024-01-27T02:29:14;96804.72;;;19.98;47.82
78582;BME280;67878;46.242;5.974;2024-01-27T02:31:40;96801.25;;;19.98;47.81
78582;BME280;67878;46.242;5.974;2024-01-27T02:34:06;96797.94;;;19.96;47.85
78582;BME280;67878;46.242;5.974;2024-01-27T02:36:31;96807.59;;;19.95;47.70
78582;BME280;67878;46.242;5.974;2024-01-27T02:38:56;96808.81;;;19.91;47.61
78582;BME280;67878;46.242;5.974;2024-01-27T02:41:22;96813.94;;;19.92;47.70
78582;BME280;67878;46.242;5.974;2024-01-27T02:43:47;96821.78;;;19.92;47.49
78582;BME280;67878;46.242;5.974;2024-01-27T02:46:13;96821.78;;;19.92;47.50
78582;BME280;67878;46.242;5.974;2024-01-27T02:48:44;96815.72;;;19.92;47.43
78582;BME280;67878;46.242;5.974;2024-01-27T02:51:10;96818.22;;;19.93;47.55
78582;BME280;67878;46.242;5.974;2024-01-27T02:53:36;96809.09;;;19.88;47.50
78582;BME280;67878;46.242;5.974;2024-01-27T02:56:01;96807.16;;;19.90;47.42
78582;BME280;67878;46.242;5.974;2024-01-27T02:58:27;96812.38;;;19.90;47.22
78582;BME280;67878;46.242;5.974;2024-01-27T03:00:52;96820.25;;;19.90;47.49
78582;BME280;67878;46.242;5.974;2024-01-27T03:03:18;96820.41;;;19.88;47.34
78582;BME280;67878;46.242;5.974;2024-01-27T03:05:43;96823.84;;;19.89;47.09
78582;BME280;67878;46.242;5.974;2024-01-27T03:08:09;96829.19;;;19.87;47.08
78582;BME280;67878;46.242;5.974;2024-01-27T03:10:34;96828.38;;;19.87;47.09
78582;BME280;67878;46.242;5.974;2024-01-27T03:13:00;96830.19;;;19.86;47.18
78582;BME280;67878;46.242;5.974;2024-01-27T03:15:25;96827.81;;;19.83;47.13
78582;BME280;67878;46.242;5.974;2024-01-27T03:17:50;96820.78;;;19.84;46.84
78582;BME280;67878;46.242;5.974;2024-01-27T03:20:16;96825.31;;;19.82;46.90
78582;BME280;67878;46.242;5.974;2024-01-27T03:22:41;96824.38;;;19.83;46.94
78582;BME280;67878;46.242;5.974;2024-01-27T03:25:08;96821.75;;;19.83;46.97
78582;BME280;67878;46.242;5.974;2024-01-27T03:27:34;96831.41;;;19.82;46.78
78582;BME280;67878;46.242;5.974;2024-01-27T03:30:00;96832.34;;;19.81;46.86
78582;BME280;67878;46.242;5.974;2024-01-27T03:32:27;96835.78;;;19.82;46.92
78582;BME280;67878;46.242;5.974;2024-01-27T03:34:52;96831.50;;;19.81;46.81
78582;BME280;67878;46.242;5.974;2024-01-27T03:37:18;96838.56;;;19.80;46.68
78582;BME280;67878;46.242;5.974;2024-01-27T03:39:43;96828.19;;;19.79;46.70
78582;BME280;67878;46.242;5.974;2024-01-27T03:42:09;96832.59;;;19.78;46.47
78582;BME280;67878;46.242;5.974;2024-01-27T03:44:34;96832.59;;;19.78;46.87
78582;BME280;67878;46.242;5.974;2024-01-27T03:47:00;96835.22;;;19.78;46.58
78582;BME280;67878;46.242;5.974;2024-01-27T03:49:25;96837.00;;;19.78;46.78
78582;BME280;67878;46.242;5.974;2024-01-27T03:51:51;96845.97;;;19.75;46.63
78582;BME280;67878;46.242;5.974;2024-01-27T03:54:16;96851.09;;;19.77;46.56
78582;BME280;67878;46.242;5.974;2024-01-27T03:56:42;96852.03;;;19.76;46.80
78582;BME280;67878;46.242;5.974;2024-01-27T03:59:07;96844.16;;;19.76;46.46
78582;BME280;67878;46.242;5.974;2024-01-27T04:01:35;96841.69;;;19.74;46.72
78582;BME280;67878;46.242;5.974;2024-01-27T04:04:00;96845.97;;;19.75;46.81
78582;BME280;67878;46.242;5.974;2024-01-27T04:06:26;96849.56;;;19.74;46.54
78582;BME280;67878;46.242;5.974;2024-01-27T04:08:51;96842.63;;;19.73;46.60
78582;BME280;67878;46.242;5.974;2024-01-27T04:11:21;96836.56;;;19.73;46.39
78582;BME280;67878;46.242;5.974;2024-01-27T04:13:48;96836.56;;;19.73;46.83
78582;BME280;67878;46.242;5.974;2024-01-27T04:16:13;96845.25;;;19.73;46.67
78582;BME280;67878;46.242;5.974;2024-01-27T04:18:39;96844.56;;;19.71;46.56
78582;BME280;67878;46.242;5.974;2024-01-27T04:21:04;96854.09;;;19.72;46.61
78582;BME280;67878;46.242;5.974;2024-01-27T04:23:30;96848.94;;;19.70;46.55
78582;BME280;67878;46.242;5.974;2024-01-27T04:25:57;96858.50;;;19.72;46.65
78582;BME280;67878;46.242;5.974;2024-01-27T04:28:23;96854.34;;;19.69;46.83
78582;BME280;67878;46.242;5.974;2024-01-27T04:30:48;96849.81;;;19.71;46.52
78582;BME280;67878;46.242;5.974;2024-01-27T04:33:14;96851.72;;;19.69;46.58
78582;BME280;67878;46.242;5.974;2024-01-27T04:35:39;96852.53;;;19.69;46.62
78582;BME280;67878;46.242;5.974;2024-01-27T04:38:05;96852.53;;;19.69;46.44
78582;BME280;67878;46.242;5.974;2024-01-27T04:40:30;96862.66;;;19.74;46.67
78582;BME280;67878;46.242;5.974;2024-01-27T04:42:56;96870.28;;;19.77;46.49
78582;BME280;67878;46.242;5.974;2024-01-27T04:45:21;96859.06;;;19.75;46.65
78582;BME280;67878;46.242;5.974;2024-01-27T04:47:47;96874.69;;;19.77;46.77
78582;BME280;67878;46.242;5.974;2024-01-27T04:50:12;96868.59;;;19.76;46.92
78582;BME280;67878;46.242;5.974;2024-01-27T04:52:38;96866.69;;;19.78;46.78
78582;BME280;67878;46.242;5.974;2024-01-27T04:55:06;96857.03;;;19.79;46.95
78582;BME280;67878;46.242;5.974;2024-01-27T04:57:32;96866.69;;;19.78;46.82
78582;BME280;67878;46.242;5.974;2024-01-27T04:59:58;96864.31;;;19.75;46.70
78582;BME280;67878;46.242;5.974;2024-01-27T05:02:24;96860.72;;;19.76;46.56
78582;BME280;67878;46.242;5.974;2024-01-27T05:04:49;96861.81;;;19.74;46.66
78582;BME280;67878;46.242;5.974;2024-01-27T05:07:14;96866.94;;;19.75;46.63
78582;BME280;67878;46.242;5.974;2024-01-27T05:09:40;96862.66;;;19.74;46.61
78582;BME280;67878;46.242;5.974;2024-01-27T05:12:05;96867.03;;;19.74;46.39
78582;BME280;67878;46.242;5.974;2024-01-27T05:14:31;96869.66;;;19.74;46.35
78582;BME280;67878;46.242;5.974;2024-01-27T05:16:56;96870.63;;;19.73;46.58
78582;BME280;67878;46.242;5.974;2024-01-27T05:19:22;96860.16;;;19.73;46.53
78582;BME280;67878;46.242;5.974;2024-01-27T05:21:47;96867.03;;;19.74;46.63
78582;BME280;67878;46.242;5.974;2024-01-27T05:24:13;96866.22;;;19.73;46.47
78582;BME280;67878;46.242;5.974;2024-01-27T05:26:38;96869.81;;;19.72;46.59
78582;BME280;67878;46.242;5.974;2024-01-27T05:29:03;96861.38;;;19.68;46.52
78582;BME280;67878;46.242;5.974;2024-01-27T05:31:29;96868.16;;;19.71;46.35
78582;BME280;67878;46.242;5.974;2024-01-27T05:33:54;96866.34;;;19.72;46.28
78582;BME280;67878;46.242;5.974;2024-01-27T05:36:20;96867.28;;;19.70;46.38
78582;BME280;67878;46.242;5.974;2024-01-27T05:38:45;96872.53;;;19.70;46.46
78582;BME280;67878;46.242;5.974;2024-01-27T05:41:11;96874.22;;;19.72;46.17
78582;BME280;67878;46.242;5.974;2024-01-27T05:43:36;96882.09;;;19.72;46.40
78582;BME280;67878;46.242;5.974;2024-01-27T05:46:02;96877.78;;;19.70;46.24
78582;BME280;67878;46.242;5.974;2024-01-27T05:48:27;96873.41;;;19.71;46.39
78582;BME280;67878;46.242;5.974;2024-01-27T05:51:00;96878.63;;;19.71;46.15
78582;BME280;67878;46.242;5.974;2024-01-27T05:53:26;96882.09;;;19.72;46.34
78582;BME280;67878;46.242;5.974;2024-01-27T05:55:52;96884.00;;;19.69;46.20
78582;BME280;67878;46.242;5.974;2024-01-27T05:58:19;96889.13;;;19.71;46.42
78582;BME280;67878;46.242;5.974;2024-01-27T06:00:46;96891.75;;;19.71;46.29
78582;BME280;67878;46.242;5.974;2024-01-27T06:03:12;96894.38;;;19.71;46.18
78582;BME280;67878;46.242;5.974;2024-01-27T06:05:38;96895.19;;;19.72;46.41
78582;BME280;67878;46.242;5.974;2024-01-27T06:08:06;96904.00;;;19.70;46.50
78582;BME280;67878;46.242;5.974;2024-01-27T06:10:32;96900.44;;;19.72;46.22
78582;BME280;67878;46.242;5.974;2024-01-27T06:12:58;96906.63;;;19.70;46.34
78582;BME280;67878;46.242;5.974;2024-01-27T06:15:23;96913.53;;;19.72;46.31
78582;BME280;67878;46.242;5.974;2024-01-27T06:17:48;96910.19;;;19.69;46.37
78582;BME280;67878;46.242;5.974;2024-01-27T06:20:14;96914.47;;;19.70;46.35
78582;BME280;67878;46.242;5.974;2024-01-27T06:22:42;96909.22;;;19.70;46.37
78582;BME280;67878;46.242;5.974;2024-01-27T06:25:08;96907.59;;;19.69;46.43
78582;BME280;67878;46.242;5.974;2024-01-27T06:27:34;96911.03;;;19.70;46.29
78582;BME280;67878;46.242;5.974;2024-01-27T06:29:59;96913.66;;;19.70;46.40
78582;BME280;67878;46.242;5.974;2024-01-27T06:32:25;96912.81;;;19.69;46.28
78582;BME280;67878;46.242;5.974;2024-01-27T06:34:50;96906.75;;;19.69;46.37
78582;BME280;67878;46.242;5.974;2024-01-27T06:37:15;96914.63;;;19.69;46.37
78582;BME280;67878;46.242;5.974;2024-01-27T06:39:41;96917.09;;;19.70;46.26
78582;BME280;67878;46.242;5.974;2024-01-27T06:42:06;96914.63;;;19.69;46.11
78582;BME280;67878;46.242;5.974;2024-01-27T06:44:32;96916.28;;;19.70;46.13
78582;BME280;67878;46.242;5.974;2024-01-27T06:46:57;96918.06;;;19.69;46.06
78582;BME280;67878;46.242;5.974;2024-01-27T06:49:22;96916.28;;;19.70;46.00
78582;BME280;67878;46.242;5.974;2024-01-27T06:51:48;96913.66;;;19.70;45.98
78582;BME280;67878;46.242;5.974;2024-01-27T06:54:13;96913.78;;;19.68;46.14
78582;BME280;67878;46.242;5.974;2024-01-27T06:56:39;96926.91;;;19.68;46.16
78582;BME280;67878;46.242;5.974;2024-01-27T06:59:04;96924.28;;;19.68;46.03
78582;BME280;67878;46.242;5.974;2024-01-27T07:01:29;96924.28;;;19.68;46.06
78582;BME280;67878;46.242;5.974;2024-01-27T07:03:55;96925.22;;;19.67;46.04
78582;BME280;67878;46.242;5.974;2024-01-27T07:06:20;96930.47;;;19.67;46.12
78582;BME280;67878;46.242;5.974;2024-01-27T07:08:46;96926.03;;;19.68;46.40
78582;BME280;67878;46.242;5.974;2024-01-27T07:11:11;96931.88;;;19.72;46.50
78582;BME280;67878;46.242;5.974;2024-01-27T07:13:37;96942.13;;;19.75;46.40
78582;BME280;67878;46.242;5.974;2024-01-27T07:16:03;96929.72;;;19.77;46.17
78582;BME280;67878;46.242;5.974;2024-01-27T07:18:28;96935.81;;;19.77;46.44
78582;BME280;67878;46.242;5.974;2024-01-27T07:20:54;96933.03;;;19.79;46.30
78582;BME280;67878;46.242;5.974;2024-01-27T07:23:20;96937.47;;;19.78;46.33
78582;BME280;67878;46.242;5.974;2024-01-27T07:25:45;96932.34;;;19.77;46.32
78582;BME280;67878;46.242;5.974;2024-01-27T07:28:11;96940.06;;;19.78;46.39
78582;BME280;67878;46.242;5.974;2024-01-27T07:30:37;96930.66;;;19.76;46.20
78582;BME280;67878;46.242;5.974;2024-01-27T07:33:03;96944.59;;;19.76;46.36
78582;BME280;67878;46.242;5.974;2024-01-27T07:35:29;96935.34;;;19.72;46.36
78582;BME280;67878;46.242;5.974;2024-01-27T07:37:58;96950.00;;;19.75;46.56
78582;BME280;67878;46.242;5.974;2024-01-27T07:40:23;96947.38;;;19.75;46.56
78582;BME280;67878;46.242;5.974;2024-01-27T07:42:48;96952.72;;;19.73;46.48
78582;BME280;67878;46.242;5.974;2024-01-27T07:45:14;96949.16;;;19.74;46.46
78582;BME280;67878;46.242;5.974;2024-01-27T07:47:40;96946.66;;;19.73;46.66
78582;BME280;67878;46.242;5.974;2024-01-27T07:50:06;96954.41;;;19.74;46.69
78582;BME280;67878;46.242;5.974;2024-01-27T07:52:32;96942.38;;;19.72;46.84
78582;BME280;67878;46.242;5.974;2024-01-27T07:54:57;96949.41;;;19.71;46.62
78582;BME280;67878;46.242;5.974;2024-01-27T07:57:24;96941.41;;;19.73;46.62
78582;BME280;67878;46.242;5.974;2024-01-27T07:59:49;96941.41;;;19.73;46.50
78582;BME280;67878;46.242;5.974;2024-01-27T08:02:15;96944.16;;;19.71;46.62
78582;BME280;67878;46.242;5.974;2024-01-27T08:04:40;96945.00;;;19.72;46.83
78582;BME280;67878;46.242;5.974;2024-01-27T08:07:05;96946.78;;;19.71;46.73
78582;BME280;67878;46.242;5.974;2024-01-27T08:09:38;96944.84;;;19.73;47.20
78582;BME280;67878;46.242;5.974;2024-01-27T08:12:04;96945.56;;;19.75;47.02
78582;BME280;67878;46.242;5.974;2024-01-27T08:14:29;96939.34;;;19.76;47.15
78582;BME280;67878;46.242;5.974;2024-01-27T08:16:59;96938.53;;;19.76;46.93
78582;BME280;67878;46.242;5.974;2024-01-27T08:19:24;96937.59;;;19.77;46.45
78582;BME280;67878;46.242;5.974;2024-01-27T08:21:50;96944.59;;;19.76;46.42
78582;BME280;67878;46.242;5.974;2024-01-27T08:24:17;96949.84;;;19.76;46.43
78582;BME280;67878;46.242;5.974;2024-01-27T08:26:44;96949.16;;;19.74;46.34
78582;BME280;67878;46.242;5.974;2024-01-27T08:29:10;96949.16;;;19.74;46.12
78582;BME280;67878;46.242;5.974;2024-01-27T08:31:35;96948.56;;;19.70;46.07
78582;BME280;67878;46.242;5.974;2024-01-27T08:34:03;96954.50;;;19.73;45.99
78582;BME280;67878;46.242;5.974;2024-01-27T08:36:28;96956.31;;;19.72;45.82
78582;BME280;67878;46.242;5.974;2024-01-27T08:38:54;96960.59;;;19.73;45.72
78582;BME280;67878;46.242;5.974;2024-01-27T08:41:19;96956.31;;;19.72;45.90
78582;BME280;67878;46.242;5.974;2024-01-27T08:43:44;96953.69;;;19.72;45.62
78582;BME280;67878;46.242;5.974;2024-01-27T08:46:10;96951.19;;;19.70;45.62
78582;BME280;67878;46.242;5.974;2024-01-27T08:48:38;96951.19;;;19.70;45.68
78582;BME280;67878;46.242;5.974;2024-01-27T08:51:04;96951.19;;;19.70;45.58
78582;BME280;67878;46.242;5.974;2024-01-27T08:53:29;96948.44;;;19.72;45.29
78582;BME280;67878;46.242;5.974;2024-01-27T08:55:55;96957.28;;;19.71;45.38
78582;BME280;67878;46.242;5.974;2024-01-27T08:58:20;96960.72;;;19.72;45.45
78582;BME280;67878;46.242;5.974;2024-01-27T09:00:45;96958.09;;;19.72;45.57
78582;BME280;67878;46.242;5.974;2024-01-27T09:03:11;96956.16;;;19.74;45.67
78582;BME280;67878;46.242;5.974;2024-01-27T09:05:37;96963.19;;;19.73;45.25
78582;BME280;67878;46.242;5.974;2024-01-27T09:08:03;96962.28;;;19.74;45.37
78582;BME280;67878;46.242;5.974;2024-01-27T09:10:31;96963.09;;;19.75;45.21
78582;BME280;67878;46.242;5.974;2024-01-27T09:12:57;96963.09;;;19.75;45.50
78582;BME280;67878;46.242;5.974;2024-01-27T09:15:23;96961.31;;;19.75;45.43
78582;BME280;67878;46.242;5.974;2024-01-27T09:17:48;96954.41;;;19.74;45.33
78582;BME280;67878;46.242;5.974;2024-01-27T09:20:14;96956.16;;;19.74;45.43
78582;BME280;67878;46.242;5.974;2024-01-27T09:22:40;96968.34;;;19.75;45.26
78582;BME280;67878;46.242;5.974;2024-01-27T09:25:07;96959.66;;;19.74;45.44
78582;BME280;67878;46.242;5.974;2024-01-27T09:27:33;96954.41;;;19.74;45.12
78582;BME280;67878;46.242;5.974;2024-01-27T09:29:59;96964.03;;;19.74;45.08
78582;BME280;67878;46.242;5.974;2024-01-27T09:32:24;96963.19;;;19.73;45.10
78582;BME280;67878;46.242;5.974;2024-01-27T09:34:50;96958.94;;;19.72;44.89
78582;BME280;67878;46.242;5.974;2024-01-27T09:37:18;96957.13;;;19.73;45.10
78582;BME280;67878;46.242;5.974;2024-01-27T09:39:43;96958.94;;;19.72;45.22
78582;BME280;67878;46.242;5.974;2024-01-27T09:42:13;96962.38;;;19.73;44.89
78582;BME280;67878;46.242;5.974;2024-01-27T09:44:43;96960.72;;;19.72;44.92
78582;BME280;67878;46.242;5.974;2024-01-27T09:47:10;96957.13;;;19.73;45.02
78582;BME280;67878;46.242;5.974;2024-01-27T09:49:38;96964.03;;;19.74;44.83
78582;BME280;67878;46.242;5.974;2024-01-27T09:52:05;96965.72;;;19.75;45.09
78582;BME280;67878;46.242;5.974;2024-01-27T09:54:30;96976.19;;;19.75;44.94
78582;BME280;67878;46.242;5.974;2024-01-27T09:56:56;96974.41;;;19.75;45.00
78582;BME280;67878;46.242;5.974;2024-01-27T09:59:22;96974.41;;;19.75;45.10
78582;BME280;67878;46.242;5.974;2024-01-27T10:01:48;96975.94;;;19.78;45.06
78582;BME280;67878;46.242;5.974;2024-01-27T10:04:14;96974.16;;;19.78;45.05
78582;BME280;67878;46.242;5.974;2024-01-27T10:06:40;96974.88;;;19.80;44.96
78582;BME280;67878;46.242;5.974;2024-01-27T10:09:06;96973.91;;;19.81;44.88
78582;BME280;67878;46.242;5.974;2024-01-27T10:11:36;96973.81;;;19.83;44.61
78582;BME280;67878;46.242;5.974;2024-01-27T10:14:01;96967.59;;;19.84;44.73
78582;BME280;67878;46.242;5.974;2024-01-27T10:16:28;96969.13;;;19.86;44.52
78582;BME280;67878;46.242;5.974;2024-01-27T10:19:01;96975.78;;;19.90;43.55
78582;BME280;67878;46.242;5.974;2024-01-27T10:21:26;96973.88;;;19.92;44.11
78582;BME280;67878;46.242;5.974;2024-01-27T10:23:52;96979.84;;;19.95;43.92
78582;BME280;67878;46.242;5.974;2024-01-27T10:26:18;96980.41;;;19.98;43.85
78582;BME280;67878;46.242;5.974;2024-01-27T10:28:52;96968.00;;;20.00;42.75
78582;BME280;67878;46.242;5.974;2024-01-27T10:31:17;96974.91;;;20.01;43.43
78582;BME280;67878;46.242;5.974;2024-01-27T10:33:51;96977.41;;;20.03;42.86
78582;BME280;67878;46.242;5.974;2024-01-27T10:36:18;96980.88;;;20.03;43.35
78582;BME280;67878;46.242;5.974;2024-01-27T10:38:44;96972.88;;;20.05;43.47
78582;BME280;67878;46.242;5.974;2024-01-27T10:41:10;96983.38;;;20.05;43.31
78582;BME280;67878;46.242;5.974;2024-01-27T10:43:39;96978.13;;;20.05;43.26
78582;BME280;67878;46.242;5.974;2024-01-27T10:46:06;96978.72;;;20.08;43.10
78582;BME280;67878;46.242;5.974;2024-01-27T10:48:38;96966.41;;;20.09;42.84
78582;BME280;67878;46.242;5.974;2024-01-27T10:51:09;96963.81;;;20.09;42.82
78582;BME280;67878;46.242;5.974;2024-01-27T10:53:36;96965.44;;;20.10;43.24
78582;BME280;67878;46.242;5.974;2024-01-27T10:56:04;96962.81;;;20.10;43.26
78582;BME280;67878;46.242;5.974;2024-01-27T10:58:35;96963.53;;;20.12;43.19
78582;BME280;67878;46.242;5.974;2024-01-27T11:01:13;96960.09;;;20.11;42.48
78582;BME280;67878;46.242;5.974;2024-01-27T11:03:39;96958.31;;;20.12;43.16
78582;BME280;67878;46.242;5.974;2024-01-27T11:06:08;96960.09;;;20.11;43.07
78582;BME280;67878;46.242;5.974;2024-01-27T11:08:34;96952.09;;;20.13;43.26
78582;BME280;67878;46.242;5.974;2024-01-27T11:11:00;96953.88;;;20.12;43.28
78582;BME280;67878;46.242;5.974;2024-01-27T11:13:28;96954.69;;;20.13;43.58
78582;BME280;67878;46.242;5.974;2024-01-27T11:15:55;96950.31;;;20.13;43.58
78582;BME280;67878;46.242;5.974;2024-01-27T11:18:21;96947.81;;;20.12;43.67
78582;BME280;67878;46.242;5.974;2024-01-27T11:20:47;96941.72;;;20.11;43.81
78582;BME280;67878;46.242;5.974;2024-01-27T11:23:12;96945.19;;;20.12;43.95
78582;BME280;67878;46.242;5.974;2024-01-27T11:25:41;96947.09;;;20.10;43.97
78582;BME280;67878;46.242;5.974;2024-01-27T11:28:15;96942.81;;;20.09;44.20
78582;BME280;67878;46.242;5.974;2024-01-27T11:30:47;96942.00;;;20.08;44.13
78582;BME280;67878;46.242;5.974;2024-01-27T11:33:14;96939.47;;;20.07;44.03
78582;BME280;67878;46.242;5.974;2024-01-27T11:35:40;96938.66;;;20.06;44.11
78582;BME280;67878;46.242;5.974;2024-01-27T11:38:06;96939.47;;;20.07;44.29
78582;BME280;67878;46.242;5.974;2024-01-27T11:40:32;96944.88;;;20.05;44.30
78582;BME280;67878;46.242;5.974;2024-01-27T11:43:00;96937.94;;;20.04;44.33
78582;BME280;67878;46.242;5.974;2024-01-27T11:45:26;96930.06;;;20.04;44.36
78582;BME280;67878;46.242;5.974;2024-01-27T11:47:55;96930.94;;;20.05;44.42
78582;BME280;67878;46.242;5.974;2024-01-27T11:50:21;96932.69;;;20.04;44.40
78582;BME280;67878;46.242;5.974;2024-01-27T11:52:47;96930.22;;;20.03;44.76
78582;BME280;67878;46.242;5.974;2024-01-27T11:55:13;96931.16;;;20.02;44.86
78582;BME280;67878;46.242;5.974;2024-01-27T11:57:44;96941.63;;;20.02;44.86
78582;BME280;67878;46.242;5.974;2024-01-27T12:00:09;96916.38;;;20.01;44.92
78582;BME280;67878;46.242;5.974;2024-01-27T12:02:39;96913.78;;;20.01;44.81
78582;BME280;67878;46.242;5.974;2024-01-27T12:05:08;96916.38;;;20.01;45.06
78582;BME280;67878;46.242;5.974;2024-01-27T12:07:33;96919.16;;;19.99;44.95
78582;BME280;67878;46.242;5.974;2024-01-27T12:09:59;96911.16;;;20.01;44.88
78582;BME280;67878;46.242;5.974;2024-01-27T12:12:25;96912.22;;;19.98;45.13
78582;BME280;67878;46.242;5.974;2024-01-27T12:14:53;96906.88;;;20.00;45.15
78582;BME280;67878;46.242;5.974;2024-01-27T12:17:24;96907.56;;;20.02;45.11
78582;BME280;67878;46.242;5.974;2024-01-27T12:19:51;96902.91;;;20.05;45.24
78582;BME280;67878;46.242;5.974;2024-01-27T12:22:29;96898.59;;;20.04;45.23
78582;BME280;67878;46.242;5.974;2024-01-27T12:24:55;96898.59;;;20.04;45.22
78582;BME280;67878;46.242;5.974;2024-01-27T12:27:22;96890.06;;;20.02;45.25
78582;BME280;67878;46.242;5.974;2024-01-27T12:29:48;96891.00;;;20.01;45.36
78582;BME280;67878;46.242;5.974;2024-01-27T12:32:18;96891.81;;;20.02;45.04
78582;BME280;67878;46.242;5.974;2024-01-27T12:34:43;96891.81;;;20.02;45.26
78582;BME280;67878;46.242;5.974;2024-01-27T12:37:11;96887.53;;;20.01;45.06
78582;BME280;67878;46.242;5.974;2024-01-27T12:39:37;96885.88;;;20.00;45.03
78582;BME280;67878;46.242;5.974;2024-01-27T12:42:04;96884.09;;;20.00;44.94
78582;BME280;67878;46.242;5.974;2024-01-27T12:44:31;96889.44;;;19.99;45.22
78582;BME280;67878;46.242;5.974;2024-01-27T12:46:56;96884.22;;;19.99;45.16
78582;BME280;67878;46.242;5.974;2024-01-27T12:49:23;96880.75;;;19.98;44.96
78582;BME280;67878;46.242;5.974;2024-01-27T12:51:49;96867.66;;;19.98;44.99
78582;BME280;67878;46.242;5.974;2024-01-27T12:54:14;96872.06;;;19.98;45.18